Time;durP1;ratioP1;P1;durP2;ratioP2;P2;SDS_P1;SDS_P2;PMS_P1;PMS_P2;Temp;Humidity;BMP_temperature;BMP_pressure;BME280_temperature;BME280_humidity;BME280_pressure;Samples;Min_cycle;Max_cycle;Signal;HPM_P1;HPM_P2
2022/04/22 00:02:20;;;;;;;9.48;7.15;;;;;;;9.17;64.09;97861.41;2618927;39;20438;-63
2022/04/22 00:04:49;;;;;;;11.27;7.40;;;;;;;9.12;64.08;97860.44;2618958;54;20046;-62
2022/04/22 00:07:19;;;;;;;8.43;7.53;;;;;;;9.09;64.35;97855.56;2619172;54;20141;-62
2022/04/22 00:09:48;;;;;;;10.38;7.38;;;;;;;9.03;64.42;97856.41;2619458;54;20034;-62
2022/04/22 00:12:21;;;;;;;13.55;7.78;;;;;;;9.04;64.52;97858.00;2619573;54;20065;-63
2022/04/22 00:14:50;;;;;;;9.63;8.10;;;;;;;8.95;64.71;97860.06;2619616;54;20045;-63
2022/04/22 00:17:20;;;;;;;9.77;7.22;;;;;;;8.96;64.79;97860.84;2619234;54;20035;-65
2022/04/22 00:19:49;;;;;;;9.70;7.38;;;;;;;8.93;65.03;97851.53;2622413;54;20046;-63
2022/04/22 00:22:19;;;;;;;8.90;8.00;;;;;;;8.90;64.84;97855.41;2622391;54;20149;-63
2022/04/22 00:24:49;;;;;;;9.25;7.65;;;;;;;8.87;64.93;97862.91;2622815;54;20038;-63
2022/04/22 00:27:21;;;;;;;9.00;8.10;;;;;;;8.83;65.25;97854.59;2622496;54;20034;-63
2022/04/22 00:29:50;;;;;;;11.15;8.25;;;;;;;8.84;65.47;97858.03;2621614;54;20030;-63
2022/04/22 00:32:20;;;;;;;9.90;8.90;;;;;;;8.88;65.57;97860.06;2623080;54;20038;-64
2022/04/22 00:34:50;;;;;;;12.32;10.18;;;;;;;8.86;65.36;97858.66;2623097;54;20033;-63
2022/04/22 00:37:19;;;;;;;11.50;8.82;;;;;;;8.80;65.33;97856.81;2622689;54;20026;-63
2022/04/22 00:39:49;;;;;;;12.93;10.52;;;;;;;8.78;65.29;97859.66;2623527;54;20045;-63
2022/04/22 00:42:21;;;;;;;11.43;9.65;;;;;;;8.73;65.71;97856.00;2623519;54;20040;-64
2022/04/22 00:44:51;;;;;;;14.13;10.88;;;;;;;8.72;65.55;97851.75;2623509;54;20042;-63
2022/04/22 00:47:20;;;;;;;13.43;11.00;;;;;;;8.67;65.83;97852.38;2622420;54;20033;-65
2022/04/22 00:49:50;;;;;;;11.27;9.63;;;;;;;8.65;65.77;97842.03;2622629;54;20054;-64
2022/04/22 00:52:20;;;;;;;13.95;10.35;;;;;;;8.60;66.21;97836.56;2623052;54;20041;-64
2022/04/22 00:54:50;;;;;;;15.02;9.98;;;;;;;8.54;66.34;97829.47;2623498;39;20465;-64
2022/04/22 00:57:23;;;;;;;12.60;11.10;;;;;;;8.53;66.44;97832.28;2622722;54;20054;-65
2022/04/22 00:59:54;;;;;;;12.80;10.85;;;;;;;8.47;66.69;97826.03;2623021;54;20034;-64
2022/04/22 01:02:23;;;;;;;13.00;10.50;;;;;;;8.49;66.76;97828.44;2623152;54;20038;-64
2022/04/22 01:10:18;;;;;;;13.98;10.93;;;;;;;8.41;67.01;97818.94;2623836;54;20035;-65
2022/04/22 01:12:50;;;;;;;13.65;11.50;;;;;;;8.38;66.67;97814.09;2622887;54;20042;-66
2022/04/22 01:15:21;;;;;;;15.73;11.43;;;;;;;8.39;66.71;97810.44;2622722;54;20038;-65
2022/04/22 01:17:50;;;;;;;16.35;11.55;;;;;;;8.38;66.81;97825.41;2622402;54;20057;-65
2022/04/22 01:20:20;;;;;;;14.52;11.30;;;;;;;8.35;67.09;97812.63;2623428;54;20045;-64
2022/04/22 01:22:52;;;;;;;15.23;11.55;;;;;;;8.32;67.07;97802.47;2622290;54;20038;-64
2022/04/22 01:25:22;;;;;;;14.88;12.05;;;;;;;8.25;67.49;97804.31;2621175;54;20058;-63
2022/04/22 01:27:53;;;;;;;14.55;11.88;;;;;;;8.24;67.72;97801.88;2621731;54;20026;-65
2022/04/22 01:30:24;;;;;;;16.00;12.00;;;;;;;8.19;67.43;97800.66;2622268;54;20045;-65
2022/04/22 01:32:56;;;;;;;13.15;11.25;;;;;;;8.17;67.83;97796.63;2622566;54;20050;-65
2022/04/22 01:35:26;;;;;;;15.15;12.25;;;;;;;8.15;67.90;97796.81;2622681;54;20034;-64
2022/04/22 01:37:59;;;;;;;14.55;10.98;;;;;;;8.13;67.85;97795.41;2621735;54;20054;-64
2022/04/22 01:40:29;;;;;;;14.02;11.50;;;;;;;8.10;67.87;97795.81;2622165;54;20041;-64
2022/04/22 01:42:58;;;;;;;14.63;11.35;;;;;;;8.06;67.93;97789.31;2622410;39;20447;-64
2022/04/22 01:45:29;;;;;;;15.25;12.13;;;;;;;7.98;68.37;97786.88;2622592;54;20038;-64
2022/04/22 01:47:59;;;;;;;15.60;12.52;;;;;;;7.98;68.50;97790.31;2621789;54;20034;-64
2022/04/22 01:50:29;;;;;;;17.00;13.20;;;;;;;8.03;68.40;97785.25;2622283;54;20598;-64
2022/04/22 01:53:01;;;;;;;19.73;14.20;;;;;;;7.97;68.43;97777.38;2622211;54;20031;-65
2022/04/22 01:55:30;;;;;;;18.40;13.55;;;;;;;7.89;68.41;97781.81;2622604;54;20589;-63
2022/04/22 01:58:01;;;;;;;15.30;12.68;;;;;;;7.88;68.70;97780.19;2622235;54;20027;-66
2022/04/22 02:00:31;;;;;;;15.82;12.82;;;;;;;7.92;68.46;97783.25;2622332;54;20065;-63
2022/04/22 02:03:00;;;;;;;17.40;13.13;;;;;;;7.91;68.66;97787.66;2622938;54;20034;-65
2022/04/22 02:05:32;;;;;;;22.90;14.25;;;;;;;7.95;68.70;97774.91;2623149;54;20051;-64
2022/04/22 02:08:04;;;;;;;19.38;12.80;;;;;;;7.93;68.41;97779.59;2622393;47;20065;-64
2022/04/22 02:10:34;;;;;;;17.02;12.90;;;;;;;7.93;68.61;97777.78;2623295;54;20041;-63
2022/04/22 02:13:03;;;;;;;15.48;11.90;;;;;;;7.91;68.46;97769.25;2623268;54;20046;-63
2022/04/22 02:15:33;;;;;;;14.90;12.60;;;;;;;7.89;68.38;97771.28;2623582;54;20031;-64
2022/04/22 02:18:02;;;;;;;18.48;13.82;;;;;;;7.83;68.58;97764.16;2622653;54;20034;-63
2022/04/22 02:20:32;;;;;;;18.17;13.80;;;;;;;7.82;69.04;97765.19;2623137;54;20038;-65
2022/04/22 02:23:04;;;;;;;14.35;12.48;;;;;;;7.79;68.76;97759.50;2623030;54;20038;-64
2022/04/22 02:25:34;;;;;;;18.95;13.93;;;;;;;7.82;69.12;97762.56;2622765;54;20038;-63
2022/04/22 02:30:45;;;;;;;21.27;13.85;;;;;;;7.75;69.16;97760.94;2622880;54;20039;-63
2022/04/22 02:33:15;;;;;;;17.08;13.88;;;;;;;7.76;69.25;97752.03;2623069;54;20070;-63
2022/04/22 02:35:45;;;;;;;18.33;15.50;;;;;;;7.73;69.02;97752.44;2623190;54;20031;-63
2022/04/22 02:38:17;;;;;;;16.77;13.30;;;;;;;7.70;69.21;97758.91;2621885;54;20042;-63
2022/04/22 02:46:11;;;;;;;19.83;13.88;;;;;;;7.61;69.49;97744.31;2620367;54;20037;-62
2022/04/22 02:48:40;;;;;;;19.50;15.10;;;;;;;7.66;69.44;97745.31;2622786;54;20086;-63
2022/04/22 02:51:10;;;;;;;21.83;14.38;;;;;;;7.69;69.16;97744.94;2623629;54;20026;-61
2022/04/22 02:53:42;;;;;;;22.42;14.93;;;;;;;7.70;69.02;97743.91;2623773;46;20049;-62
2022/04/22 02:56:12;;;;;;;20.60;16.25;;;;;;;7.80;69.17;97743.56;2623560;54;20027;-62
2022/04/22 02:58:43;;;;;;;20.10;14.63;;;;;;;7.79;68.87;97741.09;2623354;54;20099;-61
2022/04/22 03:01:13;;;;;;;20.83;15.48;;;;;;;7.74;69.33;97733.81;2623539;54;20043;-63
2022/04/22 03:03:43;;;;;;;23.55;16.55;;;;;;;7.76;68.94;97734.44;2624065;54;20045;-62
2022/04/22 03:06:13;;;;;;;20.67;13.98;;;;;;;7.73;69.36;97732.19;2623601;54;20045;-63
2022/04/22 03:08:45;;;;;;;20.30;15.02;;;;;;;7.73;68.57;97732.19;2623738;54;20026;-62
2022/04/22 03:11:21;;;;;;;18.02;14.77;;;;;;;7.67;68.57;97735.63;2623723;54;20042;-64
2022/04/22 03:13:52;;;;;;;20.45;16.00;;;;;;;7.65;69.14;97729.75;2623688;54;20150;-63
2022/04/22 03:16:25;;;;;;;21.25;15.73;;;;;;;7.64;68.96;97733.41;2622865;47;20049;-62
2022/04/22 03:18:56;;;;;;;20.15;14.65;;;;;;;7.62;69.04;97724.88;2623670;54;20046;-63
2022/04/22 03:21:25;;;;;;;20.20;16.27;;;;;;;7.67;68.89;97727.72;2623888;54;20034;-64
2022/04/22 03:23:58;;;;;;;20.08;16.20;;;;;;;7.62;68.59;97730.16;2623951;54;20039;-62
2022/04/22 03:26:28;;;;;;;20.08;14.80;;;;;;;7.57;68.96;97724.69;2624086;39;20419;-63
2022/04/22 03:28:58;;;;;;;22.77;16.48;;;;;;;7.55;69.30;97731.94;2623726;39;20451;-63
2022/04/22 03:31:28;;;;;;;24.02;17.00;;;;;;;7.54;69.18;97728.50;2624163;39;20168;-62
2022/04/22 03:33:57;;;;;;;24.85;18.08;;;;;;;7.48;68.82;97724.06;2623226;47;20046;-63
2022/04/22 03:36:27;;;;;;;21.67;16.92;;;;;;;7.40;69.35;97719.78;2623719;39;20439;-62
2022/04/22 03:38:59;;;;;;;25.25;18.08;;;;;;;7.34;69.57;97725.81;2623537;39;20455;-61
2022/04/22 03:41:29;;;;;;;25.05;18.15;;;;;;;7.29;69.71;97719.56;2622981;46;20042;-62
2022/04/22 03:43:59;;;;;;;25.48;18.58;;;;;;;7.22;70.35;97722.16;2623701;54;20027;-62
2022/04/22 03:46:30;;;;;;;27.33;19.92;;;;;;;7.22;70.66;97721.34;2622993;47;20042;-62
2022/04/22 03:49:00;;;;;;;28.38;19.80;;;;;;;7.23;70.61;97717.72;2624996;39;20415;-62
2022/04/22 03:51:30;;;;;;;26.48;19.10;;;;;;;7.21;70.41;97715.28;2623070;39;20698;-62
2022/04/22 03:54:02;;;;;;;27.80;20.02;;;;;;;7.18;70.82;97720.94;2622469;54;20031;-62
2022/04/22 03:59:14;;;;;;;27.98;19.50;;;;;;;7.15;70.84;97710.84;2622475;54;20034;-64
2022/04/22 04:01:44;;;;;;;29.02;20.17;;;;;;;7.15;70.91;97711.63;2623169;54;20030;-62
2022/04/22 04:04:14;;;;;;;28.30;19.95;;;;;;;7.13;70.94;97710.19;2623113;54;20027;-62
2022/04/22 04:06:43;;;;;;;26.15;19.55;;;;;;;7.13;71.31;97712.84;2622394;54;20039;-62
2022/04/22 04:17:21;;;;;;;30.83;21.08;;;;;;;7.09;71.65;97706.34;2619637;54;20566;-66
2022/04/22 04:25:18;;;;;;;29.40;21.55;;;;;;;7.09;71.22;97701.09;2617508;54;20038;-66
2022/04/22 04:27:49;;;;;;;37.25;25.27;;;;;;;7.08;71.42;97702.91;2617363;54;20026;-67
2022/04/22 04:30:19;;;;;;;32.25;22.27;;;;;;;7.11;72.07;97709.59;2617231;54;20029;-66
2022/04/22 04:32:49;;;;;;;42.90;29.45;;;;;;;7.13;71.67;97708.38;2617504;47;20030;-66
2022/04/22 04:35:19;;;;;;;33.25;22.45;;;;;;;7.22;71.70;97708.19;2617839;54;20030;-67
2022/04/22 04:37:49;;;;;;;32.00;22.58;;;;;;;7.29;71.63;97712.47;2617423;54;20550;-67
2022/04/22 04:40:21;;;;;;;31.00;21.42;;;;;;;7.37;71.28;97708.84;2617897;54;20027;-67
2022/04/22 04:42:51;;;;;;;33.90;25.40;;;;;;;7.43;71.11;97710.72;2618292;54;20035;-65
2022/04/22 04:45:21;;;;;;;33.70;23.00;;;;;;;7.44;71.15;97707.06;2618312;54;20030;-66
2022/04/22 04:47:50;;;;;;;34.95;23.08;;;;;;;7.40;70.81;97698.75;2617781;54;20030;-67
2022/04/22 04:50:20;;;;;;;32.03;22.15;;;;;;;7.39;71.32;97698.97;2618047;54;20039;-66
2022/04/22 04:52:50;;;;;;;31.58;22.10;;;;;;;7.49;70.99;97693.31;2617900;47;20046;-65
2022/04/22 04:55:22;;;;;;;30.58;21.95;;;;;;;7.57;70.62;97701.00;2618101;54;20027;-67
2022/04/22 04:57:51;;;;;;;33.03;21.90;;;;;;;7.69;70.91;97704.69;2617540;54;20023;-67
2022/04/22 05:00:21;;;;;;;32.45;21.85;;;;;;;7.75;70.44;97703.84;2621929;54;20034;-66
2022/04/22 05:02:54;;;;;;;30.10;22.42;;;;;;;7.83;70.03;97708.13;2618643;47;20619;-66
2022/04/22 05:05:31;;;;;;;29.88;21.13;;;;;;;7.82;70.14;97704.69;2617755;54;20030;-67
2022/04/22 05:08:02;;;;;;;33.13;22.23;;;;;;;7.88;69.94;97711.78;2617992;47;20130;-65
2022/04/22 05:10:35;;;;;;;37.58;24.55;;;;;;;8.00;69.81;97716.41;2618851;54;20022;-65
2022/04/22 05:13:06;;;;;;;34.42;24.95;;;;;;;8.03;69.10;97713.38;2619438;54;20026;-66
2022/04/22 05:15:36;;;;;;;39.15;26.00;;;;;;;8.06;69.40;97718.25;2618037;54;20549;-66
2022/04/22 05:18:06;;;;;;;31.90;21.77;;;;;;;7.98;69.08;97710.56;2617664;54;20539;-67
2022/04/22 05:20:35;;;;;;;34.80;23.45;;;;;;;7.97;69.51;97719.47;2619025;54;20038;-66
2022/04/22 05:23:05;;;;;;;37.30;26.90;;;;;;;7.95;69.26;97719.66;2619150;54;20038;-67
2022/04/22 05:25:37;;;;;;;32.05;22.15;;;;;;;8.00;69.69;97713.78;2617802;54;20038;-67
2022/04/22 05:28:08;;;;;;;35.72;24.20;;;;;;;8.05;69.73;97714.81;2616294;54;20035;-67
2022/04/22 05:33:20;;;;;;;33.10;23.23;;;;;;;8.16;69.37;97700.22;2616875;47;20038;-67
2022/04/22 05:35:49;;;;;;;31.50;21.73;;;;;;;8.23;69.43;97702.84;2617371;54;20046;-67
2022/04/22 05:38:19;;;;;;;30.38;21.50;;;;;;;8.24;68.90;97700.00;2617102;54;20042;-66
2022/04/22 05:40:51;;;;;;;30.92;23.02;;;;;;;8.32;69.27;97707.69;2618031;54;20026;-67
2022/04/22 05:43:21;;;;;;;34.38;23.77;;;;;;;8.39;69.17;97707.72;2618615;54;20161;-67
2022/04/22 05:45:51;;;;;;;31.42;22.27;;;;;;;8.44;69.35;97695.53;2618209;47;20026;-68
2022/04/22 05:48:20;;;;;;;35.38;25.70;;;;;;;8.56;69.38;97703.63;2620350;46;20662;-66
2022/04/22 05:50:50;;;;;;;38.83;27.48;;;;;;;8.62;68.49;97710.72;2621080;39;20442;-68
2022/04/22 05:53:20;;;;;;;38.90;25.85;;;;;;;8.64;68.82;97706.03;2618896;54;20041;-68
2022/04/22 05:55:52;;;;;;;40.78;25.77;;;;;;;8.61;68.85;97701.22;2619940;54;20041;-68
2022/04/22 05:58:22;;;;;;;38.50;26.15;;;;;;;8.60;68.78;97699.56;2620340;54;20636;-68
2022/04/22 06:00:52;;;;;;;31.90;23.42;;;;;;;8.72;68.74;97702.38;2619772;39;20702;-67
2022/04/22 06:03:24;;;;;;;32.45;22.52;;;;;;;8.85;69.05;97697.06;2618229;54;20035;-68
2022/04/22 06:05:54;;;;;;;35.50;24.63;;;;;;;8.96;68.25;97697.44;2619514;54;20038;-68
2022/04/22 06:11:08;;;;;;;32.13;23.77;;;;;;;9.07;67.90;97697.59;2619156;46;20562;-67
2022/04/22 06:13:38;;;;;;;28.83;21.55;;;;;;;9.26;67.89;97687.16;2619760;54;20107;-68
2022/04/22 06:16:13;;;;;;;30.90;22.73;;;;;;;9.45;67.50;97693.34;2619461;54;20041;-67
2022/04/22 06:18:43;;;;;;;31.52;23.27;;;;;;;9.51;66.37;97680.13;2619235;54;20038;-66
2022/04/22 06:21:12;;;;;;;29.35;21.88;;;;;;;9.51;66.39;97679.28;2619609;54;20142;-67
2022/04/22 06:23:42;;;;;;;29.58;21.83;;;;;;;9.55;66.43;97678.69;2619482;54;20065;-67
2022/04/22 06:26:14;;;;;;;33.40;22.48;;;;;;;9.60;65.87;97676.19;2619274;54;20027;-68
2022/04/22 06:28:44;;;;;;;28.48;21.48;;;;;;;9.63;65.86;97675.78;2617778;54;20027;-68
2022/04/22 06:31:14;;;;;;;30.65;22.95;;;;;;;9.68;65.61;97672.50;2618284;54;20027;-67
2022/04/22 06:33:45;;;;;;;31.70;21.65;;;;;;;9.69;65.17;97671.47;2618330;54;20031;-68
2022/04/22 06:36:18;;;;;;;31.33;21.83;;;;;;;9.68;65.80;97668.03;2618260;54;20026;-67
2022/04/22 06:38:49;;;;;;;31.65;21.77;;;;;;;9.64;65.19;97661.56;2616981;46;20064;-67
2022/04/22 06:46:47;;;;;;;31.63;23.33;;;;;;;9.61;65.21;97663.81;2617577;54;20026;-66
2022/04/22 06:49:17;;;;;;;31.92;22.67;;;;;;;9.62;65.58;97662.78;2618165;54;20043;-67
2022/04/22 06:51:47;;;;;;;31.15;21.40;;;;;;;9.59;65.02;97661.41;2618253;54;20037;-67
2022/04/22 06:54:18;;;;;;;32.20;23.00;;;;;;;9.56;65.21;97659.19;2618439;54;20040;-67
2022/04/22 06:56:51;;;;;;;28.40;19.33;;;;;;;9.50;65.38;97661.84;2618161;54;20581;-67
2022/04/22 06:59:22;;;;;;;30.05;22.10;;;;;;;9.48;65.53;97664.72;2617965;54;20553;-68
2022/04/22 07:01:52;;;;;;;29.60;20.63;;;;;;;9.51;65.70;97666.09;2618195;54;20034;-67
2022/04/22 07:04:23;;;;;;;31.02;22.40;;;;;;;9.56;65.62;97667.09;2617774;47;20030;-68
2022/04/22 07:06:53;;;;;;;26.67;18.08;;;;;;;9.66;64.76;97656.84;2617166;54;20042;-68
2022/04/22 07:09:23;;;;;;;32.35;23.02;;;;;;;9.64;64.78;97668.66;2618752;54;20038;-68
2022/04/22 07:11:56;;;;;;;28.17;20.30;;;;;;;9.62;65.07;97668.06;2618888;31;20536;-68
2022/04/22 07:14:27;;;;;;;31.77;22.88;;;;;;;9.55;65.26;97664.66;2617442;46;20116;-68
2022/04/22 07:16:57;;;;;;;31.92;22.70;;;;;;;9.68;65.08;97665.38;2617719;54;20030;-68
2022/04/22 07:19:27;;;;;;;29.27;22.23;;;;;;;9.77;64.48;97668.56;2618196;54;20041;-67
2022/04/22 07:21:57;;;;;;;31.17;22.33;;;;;;;9.87;64.58;97662.78;2618051;54;20527;-69
2022/04/22 07:24:28;;;;;;;30.38;22.30;;;;;;;9.86;64.76;97659.34;2617995;54;20030;-68
2022/04/22 07:27:00;;;;;;;35.30;23.67;;;;;;;10.01;64.31;97669.59;2616977;47;20034;-67
2022/04/22 07:29:35;;;;;;;30.27;22.65;;;;;;;10.20;64.41;97666.97;2617967;54;20026;-68
2022/04/22 07:32:06;;;;;;;28.88;22.48;;;;;;;10.47;63.38;97672.84;2617901;54;20035;-66
2022/04/22 07:34:36;;;;;;;29.48;21.35;;;;;;;10.56;63.01;97667.03;2618090;54;20034;-67
2022/04/22 07:37:10;;;;;;;27.73;20.98;;;;;;;10.60;61.85;97670.84;2616944;47;20029;-67
2022/04/22 07:39:41;;;;;;;26.67;21.13;;;;;;;10.50;62.10;97669.78;2617959;54;20030;-67
2022/04/22 07:42:18;;;;;;;25.92;20.77;;;;;;;10.49;62.37;97665.50;2617736;47;20077;-67
2022/04/22 07:47:33;;;;;;;27.55;21.80;;;;;;;10.58;62.08;97661.56;2617530;54;20033;-67
2022/04/22 07:50:05;;;;;;;27.88;21.58;;;;;;;10.76;61.99;97666.00;2617960;54;20034;-68
2022/04/22 07:52:36;;;;;;;25.48;20.77;;;;;;;10.81;61.93;97656.38;2618213;54;20030;-67
2022/04/22 07:55:07;;;;;;;26.83;20.85;;;;;;;10.90;61.39;97663.00;2620677;54;20041;-67
2022/04/22 07:57:40;;;;;;;25.27;19.63;;;;;;;10.93;61.17;97658.28;2620649;39;20296;-68
2022/04/22 08:00:14;;;;;;;26.98;21.63;;;;;;;10.93;60.96;97660.94;2620172;47;20109;-66
2022/04/22 08:02:45;;;;;;;25.02;20.58;;;;;;;11.11;60.75;97658.28;2620532;54;20034;-68
2022/04/22 08:05:14;;;;;;;23.98;20.00;;;;;;;11.31;60.33;97658.81;2621039;54;20037;-66
2022/04/22 08:07:44;;;;;;;24.27;20.52;;;;;;;11.45;59.33;97654.13;2620571;39;20462;-67
2022/04/22 08:10:14;;;;;;;24.98;19.95;;;;;;;11.50;59.07;97661.38;2621125;54;20040;-67
2022/04/22 08:12:46;;;;;;;23.95;19.05;;;;;;;11.58;58.42;97653.91;2620036;54;20034;-67
2022/04/22 08:15:15;;;;;;;24.27;19.48;;;;;;;11.80;57.90;97658.69;2620093;54;20038;-66
2022/04/22 08:17:45;;;;;;;23.50;19.15;;;;;;;11.96;57.94;97654.56;2619625;54;20045;-66
2022/04/22 08:20:15;;;;;;;26.80;20.23;;;;;;;12.03;57.96;97652.63;2620034;54;20027;-66
2022/04/22 08:22:46;;;;;;;27.02;19.70;;;;;;;12.25;57.13;97653.69;2618527;54;20034;-66
2022/04/22 08:25:16;;;;;;;25.33;20.25;;;;;;;12.30;56.08;97650.34;2618074;54;20030;-66
2022/04/22 08:27:49;;;;;;;24.63;20.27;;;;;;;12.05;56.78;97643.44;2617733;54;20026;-66
2022/04/22 08:30:19;;;;;;;24.02;19.13;;;;;;;11.96;56.63;97643.97;2617341;47;20026;-67
2022/04/22 08:32:49;;;;;;;23.98;19.42;;;;;;;11.85;56.01;97637.66;2617900;54;20167;-66
2022/04/22 08:35:19;;;;;;;22.77;18.27;;;;;;;11.96;56.68;97643.97;2617928;54;20042;-67
2022/04/22 08:37:48;;;;;;;24.08;19.48;;;;;;;12.05;56.39;97642.63;2618089;39;20463;-66
2022/04/22 08:40:18;;;;;;;21.67;18.48;;;;;;;12.10;56.99;97638.25;2617931;54;20038;-66
2022/04/22 08:42:51;;;;;;;22.75;18.67;;;;;;;12.15;56.58;97637.53;2617353;54;20033;-66
2022/04/22 08:45:26;;;;;;;22.65;18.15;;;;;;;12.25;55.81;97632.50;2618000;46;20054;-66
2022/04/22 08:50:43;;;;;;;22.17;17.98;;;;;;;12.01;56.21;97633.53;2617801;54;20038;-67
2022/04/22 08:53:15;;;;;;;24.80;19.97;;;;;;;12.17;56.16;97632.03;2617952;54;20035;-66
2022/04/22 08:55:49;;;;;;;19.37;16.33;;;;;;;12.32;56.07;97632.34;2617795;54;20325;-66
2022/04/22 08:58:23;;;;;;;25.60;18.33;;;;;;;12.43;55.75;97628.88;2617506;54;20034;-66
2022/04/22 09:00:54;;;;;;;20.42;16.45;;;;;;;12.51;55.27;97627.72;2618222;39;20408;-67
2022/04/22 09:03:24;;;;;;;24.40;18.13;;;;;;;12.57;55.07;97614.34;2622334;39;20419;-67
2022/04/22 09:05:54;;;;;;;22.05;17.52;;;;;;;12.78;54.60;97623.53;2619198;54;20034;-67
2022/04/22 09:08:25;;;;;;;19.70;16.02;;;;;;;12.96;54.20;97619.88;2616653;54;20034;-67
2022/04/22 09:10:55;;;;;;;20.52;16.45;;;;;;;13.16;52.37;97624.75;2617184;54;20029;-66
2022/04/22 09:13:32;;;;;;;22.48;16.60;;;;;;;13.20;52.27;97620.59;2617699;54;20034;-66
2022/04/22 09:16:02;;;;;;;21.10;15.65;;;;;;;13.16;52.23;97616.78;2618479;31;20530;-66
2022/04/22 09:18:40;;;;;;;20.05;16.58;;;;;;;13.10;52.88;97617.72;2617417;39;20491;-66
2022/04/22 09:21:16;;;;;;;18.92;15.85;;;;;;;13.26;52.46;97618.84;2617704;54;20038;-65
2022/04/22 09:23:48;;;;;;;19.98;16.55;;;;;;;13.26;51.92;97617.00;2617694;54;20038;-65
2022/04/22 09:26:22;;;;;;;18.15;15.75;;;;;;;13.14;52.38;97608.25;2617907;39;20464;-66
2022/04/22 09:29:02;;;;;;;17.20;14.80;;;;;;;13.03;52.63;97609.13;2617194;54;20594;-66
2022/04/22 09:31:32;;;;;;;22.10;16.48;;;;;;;12.83;53.00;97594.44;2617540;54;20034;-65
2022/04/22 09:34:01;;;;;;;17.25;15.50;;;;;;;13.02;52.94;97597.72;2617128;47;20031;-66
2022/04/22 09:44:52;;;;;;;19.58;14.38;;;;;;;13.44;51.75;97586.78;2617773;54;20031;-66
2022/04/22 09:47:22;;;;;;;16.90;15.10;;;;;;;13.37;51.23;97586.13;2617301;54;20031;-67
2022/04/22 09:49:52;;;;;;;17.23;14.05;;;;;;;13.40;51.36;97579.56;2617567;54;20042;-67
2022/04/22 09:52:28;;;;;;;17.33;14.40;;;;;;;13.29;51.71;97571.41;2617461;54;20551;-67
2022/04/22 09:54:59;;;;;;;18.25;13.48;;;;;;;13.57;51.61;97564.44;2617760;54;20537;-67
2022/04/22 09:57:54;;;;;;;15.10;12.40;;;;;;;13.92;50.59;97561.50;2617260;54;20034;-66
2022/04/22 10:00:27;;;;;;;17.45;13.63;;;;;;;14.00;50.41;97563.75;2617144;47;20034;-66
2022/04/22 10:02:57;;;;;;;15.35;12.88;;;;;;;14.10;49.73;97566.53;2617333;51;20535;-66
2022/04/22 10:05:28;;;;;;;14.75;13.20;;;;;;;14.19;49.57;97566.91;2617901;54;20042;-67
2022/04/22 10:08:00;;;;;;;15.82;13.18;;;;;;;14.12;49.15;97553.81;2617128;54;20074;-67
2022/04/22 10:10:33;;;;;;;16.67;12.55;;;;;;;14.16;48.77;97548.78;2617818;54;20030;-66
2022/04/22 10:13:06;;;;;;;20.52;13.93;;;;;;;14.21;48.83;97548.88;2617570;54;20051;-67
2022/04/22 10:15:40;;;;;;;15.98;13.32;;;;;;;14.17;49.24;97541.66;2617701;47;20057;-66
2022/04/22 10:18:11;;;;;;;15.90;12.70;;;;;;;14.24;49.38;97534.28;2619128;39;20570;-63
2022/04/22 10:20:43;;;;;;;17.15;12.77;;;;;;;14.43;48.83;97530.28;2620473;54;20041;-62
2022/04/22 10:23:13;;;;;;;16.35;12.75;;;;;;;14.48;48.89;97529.53;2619808;54;20037;-63
2022/04/22 10:25:43;;;;;;;14.80;12.73;;;;;;;14.67;48.05;97525.53;2619532;54;20027;-62
2022/04/22 10:28:14;;;;;;;14.95;12.68;;;;;;;14.72;47.61;97514.13;2619540;54;20027;-62
2022/04/22 10:30:47;;;;;;;17.33;13.68;;;;;;;14.60;48.33;97514.25;2620130;54;20039;-63
2022/04/22 10:33:17;;;;;;;15.25;12.52;;;;;;;14.72;47.97;97514.94;2620202;54;20030;-62
2022/04/22 10:35:49;;;;;;;13.82;12.10;;;;;;;14.59;47.67;97512.66;2619462;54;20030;-63
2022/04/22 10:38:32;;;;;;;15.23;13.15;;;;;;;14.51;47.86;97510.44;2619572;54;20033;-63
2022/04/22 10:41:05;;;;;;;14.95;12.57;;;;;;;14.68;48.12;97505.84;2622308;54;20039;-62
2022/04/22 10:43:36;;;;;;;17.13;12.30;;;;;;;14.91;46.77;97511.94;2622315;54;20045;-66
2022/04/22 10:49:13;;;;;;;14.23;12.77;;;;;;;14.93;47.45;97497.31;2621521;54;20030;-64
2022/04/22 10:52:09;;;;;;;16.73;13.30;;;;;;;15.07;46.68;97485.19;2622216;54;20033;-63
2022/04/22 10:55:10;;;;;;;13.43;12.02;;;;;;;15.30;46.07;97484.03;2621905;47;20087;-63
2022/04/22 10:57:42;;;;;;;12.60;11.18;;;;;;;15.44;45.09;97478.28;2621234;54;20027;-64
2022/04/22 11:00:28;;;;;;;14.35;12.23;;;;;;;15.45;45.47;97482.56;2622178;39;20545;-62
2022/04/22 11:03:18;;;;;;;13.73;12.10;;;;;;;15.47;45.19;97477.75;2622100;54;20045;-63
2022/04/22 11:05:49;;;;;;;14.65;11.88;;;;;;;15.44;45.18;97487.09;2622054;54;20038;-64
2022/04/22 11:08:28;;;;;;;17.33;12.45;;;;;;;15.42;45.53;97481.19;2621856;54;20061;-63
2022/04/22 11:11:17;;;;;;;15.23;12.32;;;;;;;15.30;45.82;97462.72;2622444;54;20033;-65
2022/04/22 11:13:52;;;;;;;13.23;11.68;;;;;;;15.59;45.01;97468.56;2623254;54;20039;-64
2022/04/22 11:16:30;;;;;;;14.82;12.38;;;;;;;15.60;45.46;97470.16;2624017;54;20022;-62
2022/04/22 11:19:28;;;;;;;14.07;11.73;;;;;;;15.72;45.55;97472.66;2624139;54;20038;-62
2022/04/22 11:22:00;;;;;;;13.07;11.55;;;;;;;15.93;44.72;97476.22;2623918;54;20038;-64
2022/04/22 11:24:31;;;;;;;15.32;11.82;;;;;;;15.69;45.33;97465.16;2623699;54;20039;-63
2022/04/22 11:27:08;;;;;;;12.20;10.98;;;;;;;15.64;45.66;97475.75;2623790;54;20057;-63
2022/04/22 11:29:37;;;;;;;17.17;12.75;;;;;;;15.78;44.80;97468.13;2624736;54;20030;-63
2022/04/22 11:32:21;;;;;;;13.70;10.15;;;;;;;16.09;44.11;97464.56;2623307;54;20034;-64
2022/04/22 11:35:11;;;;;;;14.10;11.80;;;;;;;16.19;43.66;97463.78;2620066;54;20038;-63
2022/04/22 11:37:42;;;;;;;13.75;10.80;;;;;;;16.22;43.61;97457.94;2620228;54;20039;-62
2022/04/22 11:40:21;;;;;;;12.88;9.77;;;;;;;16.34;43.58;97455.84;2620347;54;20087;-64
2022/04/22 11:42:54;;;;;;;11.75;10.23;;;;;;;16.42;42.87;97451.06;2619833;47;20049;-63
2022/04/22 11:45:24;;;;;;;13.23;10.07;;;;;;;16.47;43.03;97451.88;2620607;54;20037;-63
2022/04/22 11:47:56;;;;;;;12.23;11.05;;;;;;;16.58;42.96;97450.84;2619763;39;20444;-62
2022/04/22 11:50:28;;;;;;;13.77;10.73;;;;;;;16.72;42.47;97447.66;2620112;54;20078;-66
2022/04/22 11:52:59;;;;;;;14.57;11.25;;;;;;;16.75;41.87;97444.50;2620867;54;20044;-66
2022/04/22 11:55:28;;;;;;;13.23;9.55;;;;;;;16.65;42.19;97449.78;2620783;54;20038;-65
2022/04/22 11:57:58;;;;;;;11.98;9.73;;;;;;;16.56;42.52;97447.63;2620591;54;20038;-64
2022/04/22 12:05:54;;;;;;;11.80;10.45;;;;;;;16.65;42.14;97431.91;2622392;54;20048;-64
2022/04/22 12:08:25;;;;;;;10.57;9.48;;;;;;;16.59;42.29;97430.28;2621468;54;20098;-64
2022/04/22 12:10:55;;;;;;;9.90;9.00;;;;;;;16.73;42.24;97444.75;2621412;54;20038;-64
2022/04/22 12:13:28;;;;;;;11.20;9.13;;;;;;;16.92;41.99;97431.69;2622435;39;20548;-64
2022/04/22 12:15:57;;;;;;;10.00;8.27;;;;;;;17.05;42.04;97428.47;2621736;39;20446;-64
2022/04/22 12:18:35;;;;;;;11.80;7.72;;;;;;;17.39;41.29;97427.94;2618960;54;20033;-63
2022/04/22 12:21:08;;;;;;;12.13;8.50;;;;;;;17.58;39.83;97430.81;2619113;54;20543;-64
2022/04/22 12:23:39;;;;;;;10.52;8.52;;;;;;;17.54;39.94;97424.41;2619940;54;20038;-63
2022/04/22 12:26:17;;;;;;;11.00;8.38;;;;;;;17.61;39.78;97416.13;2619328;54;20102;-64
2022/04/22 12:29:04;;;;;;;9.70;8.05;;;;;;;17.67;39.54;97413.16;2618942;54;20039;-64
2022/04/22 12:31:35;;;;;;;9.88;7.68;;;;;;;17.67;39.36;97423.03;2618915;39;20422;-63
2022/04/22 12:34:06;;;;;;;9.13;8.32;;;;;;;17.79;38.83;97402.97;2619361;54;20037;-63
2022/04/22 12:36:40;;;;;;;9.85;7.75;;;;;;;17.80;39.17;97390.44;2620657;54;20042;-64
2022/04/22 12:39:11;;;;;;;8.93;8.05;;;;;;;17.75;38.82;97403.81;2622147;54;20034;-64
2022/04/22 12:41:47;;;;;;;9.75;8.48;;;;;;;17.63;38.92;97389.91;2619745;47;20038;-63
2022/04/22 12:44:17;;;;;;;9.50;7.20;;;;;;;17.85;38.19;97403.00;2619799;54;20042;-63
2022/04/22 16:19:50;;;;;;;6.40;5.47;;;;;;;19.54;33.43;97329.13;2620284;39;20426;-67
2022/04/22 16:22:20;;;;;;;6.70;5.80;;;;;;;19.27;33.41;97332.41;2618581;54;20034;-68